createdAt,value
2023-03-07T00:01:29.444Z,90.04
2023-03-07T00:03:57.612Z,90.14
2023-03-07T00:06:25.396Z,90.15
2023-03-07T00:08:53.742Z,90.32
2023-03-07T00:11:23.502Z,89.98
2023-03-07T00:13:56.610Z,90.03
2023-03-07T00:16:24.717Z,90.70
2023-03-07T00:18:51.895Z,90.78
2023-03-07T00:21:22.176Z,90.91
2023-03-07T00:23:49.311Z,90.64
2023-03-07T00:26:19.260Z,90.50
2023-03-07T00:28:48.161Z,90.84
2023-03-07T00:31:15.804Z,91.65
2023-03-07T00:33:42.974Z,90.92
2023-03-07T00:36:22.282Z,91.21
2023-03-07T00:38:52.427Z,90.65
2023-03-07T00:41:24.767Z,91.58
2023-03-07T00:43:53.102Z,91.59
2023-03-07T00:46:21.619Z,91.65
2023-03-07T00:48:48.752Z,91.07
2023-03-07T00:51:17.487Z,90.95
2023-03-07T00:53:44.691Z,90.84
2023-03-07T00:56:17.528Z,91.01
2023-03-07T00:58:45.371Z,91.09
2023-03-07T01:01:14.737Z,91.21
2023-03-07T01:03:42.418Z,90.39
2023-03-07T01:06:14.781Z,90.84
2023-03-07T01:08:42.110Z,90.29
2023-03-07T01:11:10.747Z,90.72
2023-03-07T01:13:38.348Z,90.52
2023-03-07T01:16:17.635Z,90.31
2023-03-07T01:18:46.222Z,90.00
2023-03-07T01:21:19.504Z,90.78
2023-03-07T01:23:46.642Z,90.26
2023-03-07T01:26:20.928Z,90.08
2023-03-07T01:28:48.421Z,89.94
2023-03-07T01:31:15.548Z,90.37
2023-03-07T01:33:42.565Z,90.70
2023-03-07T01:36:20.379Z,90.09
2023-03-07T01:38:49.126Z,90.26
2023-03-07T01:41:16.663Z,90.08
2023-03-07T01:43:44.159Z,89.36
2023-03-07T01:46:17.363Z,89.62
2023-03-07T01:48:50.909Z,90.06
2023-03-07T01:51:19.496Z,90.11
2023-03-07T01:53:48.800Z,89.72
2023-03-07T01:56:15.771Z,90.37
2023-03-07T01:58:46.984Z,90.17
2023-03-07T02:01:15.419Z,89.56
2023-03-07T02:03:49.746Z,89.85
2023-03-07T02:06:17.925Z,89.45
2023-03-07T02:08:47.434Z,89.85
2023-03-07T02:11:17.793Z,90.20
2023-03-07T02:13:44.848Z,90.08
2023-03-07T02:16:12.133Z,89.71
2023-03-07T02:18:50.365Z,89.24
2023-03-07T02:21:38.905Z,90.53
2023-03-07T02:24:19.951Z,89.91
2023-03-07T02:26:49.383Z,90.09
2023-03-07T02:29:16.765Z,89.96
2023-03-07T02:31:47.300Z,89.52
2023-03-07T02:34:30.084Z,90.04
2023-03-07T02:37:06.220Z,89.88
2023-03-07T02:39:33.385Z,89.91
2023-03-07T02:42:09.151Z,89.60
2023-03-07T02:44:36.134Z,89.12
2023-03-07T02:47:03.175Z,88.55
2023-03-07T02:49:30.293Z,88.44
2023-03-07T02:52:00.783Z,88.52
2023-03-07T02:54:27.685Z,88.36
2023-03-07T02:56:55.300Z,88.31
2023-03-07T02:59:22.274Z,88.20
2023-03-07T03:01:49.421Z,89.20
2023-03-07T03:04:16.610Z,88.63
2023-03-07T03:06:43.520Z,87.87
2023-03-07T03:09:10.359Z,88.64
2023-03-07T03:11:37.243Z,88.08
2023-03-07T03:14:04.417Z,88.75
2023-03-07T03:16:31.598Z,88.48
2023-03-07T03:18:58.939Z,87.98
2023-03-07T03:21:26.023Z,88.67
2023-03-07T03:23:52.827Z,88.54
2023-03-07T03:26:19.803Z,88.01
2023-03-07T03:28:46.823Z,88.84
2023-03-07T03:31:18.198Z,88.63
2023-03-07T03:33:45.529Z,88.79
2023-03-07T03:36:17.293Z,88.90
2023-03-07T03:38:44.713Z,88.47
2023-03-07T03:41:13.855Z,89.17
2023-03-07T03:43:40.709Z,88.06
2023-03-07T03:46:07.952Z,88.90
2023-03-07T03:48:34.910Z,88.39
2023-03-07T03:51:06.616Z,88.32
2023-03-07T03:53:35.422Z,89.05
2023-03-07T03:56:08.544Z,89.63
2023-03-07T03:58:36.156Z,88.79
2023-03-07T04:01:07.940Z,88.17
2023-03-07T04:03:36.824Z,87.93
2023-03-07T04:06:09.786Z,88.81
2023-03-07T04:08:38.106Z,88.32
2023-03-07T04:11:06.204Z,88.38
2023-03-07T04:13:37.329Z,88.48
2023-03-07T04:16:05.440Z,87.98
2023-03-07T04:18:32.485Z,88.69
2023-03-07T04:20:59.493Z,88.43
2023-03-07T04:23:26.603Z,89.09
2023-03-07T04:25:56.658Z,88.78
2023-03-07T04:28:41.540Z,89.86
2023-03-07T04:31:08.563Z,89.61
2023-03-07T04:33:37.678Z,88.91
2023-03-07T04:36:07.862Z,89.22
2023-03-07T04:38:35.019Z,88.21
2023-03-07T04:41:02.152Z,87.23
2023-03-07T04:43:29.109Z,87.65
2023-03-07T04:45:56.008Z,86.91
2023-03-07T04:48:23.182Z,86.54
2023-03-07T04:50:50.939Z,86.65
2023-03-07T04:53:19.071Z,85.63
2023-03-07T04:55:46.022Z,85.18
2023-03-07T04:58:13.898Z,84.83
2023-03-07T05:00:42.574Z,84.25
2023-03-07T05:03:11.321Z,85.01
2023-03-07T05:05:38.914Z,83.73
2023-03-07T05:08:06.696Z,84.60
2023-03-07T05:10:35.379Z,84.00
2023-03-07T05:13:02.445Z,83.89
2023-03-07T05:15:31.869Z,83.53
2023-03-07T05:17:58.843Z,83.93
2023-03-07T05:20:25.790Z,83.88
2023-03-07T05:22:52.804Z,84.67
2023-03-07T05:25:19.844Z,84.95
2023-03-07T05:27:46.752Z,84.52
2023-03-07T05:30:14.296Z,84.00
2023-03-07T05:32:41.137Z,83.00
2023-03-07T05:35:10.199Z,83.11
2023-03-07T05:37:37.446Z,83.35
2023-03-07T05:40:09.667Z,83.33
2023-03-07T05:42:36.775Z,82.96
2023-03-07T05:45:06.022Z,83.81
2023-03-07T05:47:33.244Z,82.84
2023-03-07T05:50:00.209Z,83.18
2023-03-07T05:52:27.780Z,82.11
2023-03-07T05:54:55.142Z,82.12
2023-03-07T05:57:22.957Z,82.50
2023-03-07T05:59:50.134Z,82.35
2023-03-07T06:02:18.215Z,82.00
2023-03-07T06:04:47.190Z,82.04
2023-03-07T06:07:16.833Z,81.97
2023-03-07T06:09:43.752Z,81.47
2023-03-07T06:12:11.173Z,81.13
2023-03-07T06:14:38.221Z,80.92
2023-03-07T06:17:05.940Z,81.53
2023-03-07T06:19:33.370Z,82.34
2023-03-07T06:22:00.551Z,81.29
2023-03-07T06:24:27.383Z,81.21
2023-03-07T06:26:54.967Z,80.10
2023-03-07T06:29:21.968Z,79.77
2023-03-07T06:31:48.933Z,80.25
2023-03-07T06:34:15.893Z,80.63
2023-03-07T06:36:42.915Z,80.45
2023-03-07T06:39:09.999Z,80.10
2023-03-07T06:41:38.911Z,80.03
2023-03-07T06:44:06.190Z,80.00
2023-03-07T06:46:33.176Z,80.88
2023-03-07T06:49:00.029Z,79.26
2023-03-07T06:51:30.002Z,79.20
2023-03-07T06:53:56.941Z,78.21
2023-03-07T06:56:23.705Z,77.56
2023-03-07T06:58:53.300Z,77.78
2023-03-07T07:01:23.138Z,78.45
2023-03-07T07:03:50.153Z,78.51
2023-03-07T07:06:17.111Z,79.21
2023-03-07T07:08:44.088Z,79.57
2023-03-07T07:11:11.214Z,79.09
2023-03-07T07:13:38.230Z,77.80
2023-03-07T07:16:06.996Z,77.52
2023-03-07T07:18:36.470Z,78.47
2023-03-07T07:21:05.428Z,79.61
2023-03-07T07:23:32.298Z,79.18
2023-03-07T07:25:59.708Z,72.61
2023-03-07T07:28:26.645Z,69.51
2023-03-07T07:30:53.766Z,66.33
2023-03-07T07:33:21.433Z,67.08
2023-03-07T07:35:48.499Z,65.87
2023-03-07T07:38:15.699Z,64.41
2023-03-07T07:40:45.875Z,66.26
2023-03-07T07:43:15.770Z,67.15
2023-03-07T07:45:43.208Z,69.52
2023-03-07T07:48:10.486Z,68.94
2023-03-07T07:50:37.615Z,68.01
2023-03-07T07:53:05.073Z,67.94
2023-03-07T07:55:32.059Z,68.43
2023-03-07T07:57:59.118Z,69.14
2023-03-07T08:00:27.507Z,71.63
2023-03-07T08:02:54.880Z,74.85
2023-03-07T08:05:26.392Z,75.53
2023-03-07T08:07:53.614Z,75.44
2023-03-07T08:10:20.887Z,74.69
2023-03-07T08:12:51.774Z,74.80
2023-03-07T08:15:24.132Z,74.07
2023-03-07T08:17:51.711Z,74.03
2023-03-07T08:20:22.568Z,74.19
2023-03-07T08:22:50.741Z,73.22
2023-03-07T08:25:21.983Z,73.15
2023-03-07T08:27:55.132Z,73.67
2023-03-07T08:30:29.618Z,72.81
2023-03-07T08:32:57.530Z,72.46
2023-03-07T08:35:26.373Z,71.60
2023-03-07T08:37:59.363Z,71.46
2023-03-07T08:40:30.475Z,71.29
2023-03-07T08:42:59.694Z,70.38
2023-03-07T08:45:29.461Z,70.64
2023-03-07T08:47:57.574Z,70.78
2023-03-07T08:50:34.388Z,71.61
2023-03-07T08:53:01.516Z,70.31
2023-03-07T08:55:28.612Z,69.29
2023-03-07T08:57:55.581Z,69.21
2023-03-07T09:00:25.506Z,69.89
2023-03-07T09:02:54.586Z,69.84
2023-03-07T09:05:21.748Z,70.71
2023-03-07T09:07:48.743Z,72.41
2023-03-07T09:10:17.763Z,74.58
2023-03-07T09:12:44.679Z,74.66
2023-03-07T09:15:11.884Z,75.83
2023-03-07T09:17:41.622Z,76.83
2023-03-07T09:20:09.909Z,76.33
2023-03-07T09:22:36.834Z,71.50
2023-03-07T09:25:04.278Z,68.03
2023-03-07T09:27:31.522Z,68.14
2023-03-07T09:30:01.393Z,70.03
2023-03-07T09:32:28.340Z,69.91
2023-03-07T09:34:55.199Z,71.23
2023-03-07T09:37:22.570Z,71.83
2023-03-07T09:39:50.858Z,69.00
2023-03-07T09:42:40.676Z,65.98
2023-03-07T09:45:39.566Z,62.67
2023-03-07T09:48:28.051Z,61.46
2023-03-07T09:51:11.546Z,60.40
2023-03-07T09:53:55.476Z,59.67
2023-03-07T09:56:28.045Z,57.85
2023-03-07T09:59:13.716Z,57.60
2023-03-07T10:01:50.812Z,59.37
2023-03-07T10:04:36.518Z,60.65
2023-03-07T10:07:05.515Z,61.48
2023-03-07T10:09:32.662Z,61.91
2023-03-07T10:12:47.286Z,62.74
2023-03-07T10:15:36.418Z,67.15
2023-03-07T10:18:25.586Z,67.79
2023-03-07T10:21:12.414Z,63.27
2023-03-07T10:24:11.997Z,47.06
2023-03-07T10:26:57.876Z,34.41
2023-03-07T10:29:30.147Z,29.58
2023-03-07T10:32:23.442Z,27.21
2023-03-07T10:34:59.865Z,28.31
2023-03-07T10:37:40.867Z,33.56
2023-03-07T10:40:18.422Z,42.54
2023-03-07T10:42:45.752Z,48.87
2023-03-07T10:45:14.937Z,55.27
2023-03-07T10:47:42.307Z,57.29
2023-03-07T10:50:43.099Z,55.23
2023-03-07T10:53:25.246Z,49.03
2023-03-07T10:55:52.775Z,49.71
2023-03-07T10:58:28.027Z,36.60
2023-03-07T11:01:16.255Z,28.18
2023-03-07T11:03:54.403Z,23.96
2023-03-07T11:06:39.920Z,27.34
2023-03-07T11:09:34.236Z,36.47
2023-03-07T11:12:00.970Z,42.08
2023-03-07T11:14:29.718Z,39.66
2023-03-07T11:17:03.894Z,31.18
2023-03-07T11:19:41.324Z,23.40
2023-03-07T11:22:22.456Z,24.19
2023-03-07T11:25:04.167Z,21.71
2023-03-07T11:27:36.542Z,21.83
2023-03-07T11:30:19.986Z,25.83
2023-03-07T11:33:06.105Z,31.03
2023-03-07T11:35:51.434Z,39.15
2023-03-07T11:38:24.069Z,38.13
2023-03-07T11:41:11.811Z,27.40
2023-03-07T11:43:43.058Z,29.03
2023-03-07T11:46:47.389Z,30.80
2023-03-07T11:49:32.688Z,26.11
2023-03-07T11:52:26.865Z,25.25
2023-03-07T11:55:05.952Z,21.52
2023-03-07T11:57:38.590Z,27.59
2023-03-07T12:00:36.883Z,33.51
2023-03-07T12:03:41.860Z,39.17
2023-03-07T12:06:23.409Z,28.05
2023-03-07T12:09:01.459Z,23.49
2023-03-07T12:11:47.188Z,19.67
2023-03-07T12:14:35.426Z,18.76
2023-03-07T12:17:33.363Z,20.42
2023-03-07T12:20:11.926Z,23.53
2023-03-07T12:23:09.737Z,27.23
2023-03-07T12:25:43.600Z,30.50
2023-03-07T12:28:31.781Z,33.12
2023-03-07T12:31:15.487Z,38.05
2023-03-07T12:33:59.853Z,40.74
2023-03-07T12:36:44.038Z,43.93
2023-03-07T12:39:31.205Z,41.12
2023-03-07T12:42:22.595Z,37.87
2023-03-07T12:45:16.775Z,37.45
2023-03-07T12:47:58.861Z,37.26
2023-03-07T12:50:50.030Z,38.51
2023-03-07T12:53:38.158Z,39.10
2023-03-07T12:56:25.338Z,39.65
2023-03-07T12:59:14.582Z,39.73
2023-03-07T13:01:49.472Z,40.77
2023-03-07T13:04:23.212Z,43.92
2023-03-07T13:06:51.120Z,44.52
2023-03-07T13:09:23.050Z,43.67
2023-03-07T13:12:17.258Z,45.64
2023-03-07T13:14:55.308Z,46.87
2023-03-07T13:17:31.287Z,48.91
2023-03-07T13:20:00.456Z,47.17
2023-03-07T13:22:27.539Z,47.14
2023-03-07T13:24:57.300Z,49.38
2023-03-07T13:27:42.271Z,48.71
2023-03-07T13:30:12.282Z,50.20
2023-03-07T13:32:51.414Z,51.78
2023-03-07T13:35:38.154Z,53.05
2023-03-07T13:38:11.337Z,52.75
2023-03-07T13:40:47.725Z,52.85
2023-03-07T13:43:20.676Z,50.67
2023-03-07T13:45:50.773Z,49.73
2023-03-07T13:48:20.454Z,49.40
2023-03-07T13:50:50.064Z,49.03
2023-03-07T13:53:39.901Z,49.57
2023-03-07T13:56:15.931Z,50.08
2023-03-07T13:59:10.046Z,48.30
2023-03-07T14:01:40.929Z,48.17
2023-03-07T14:04:39.810Z,47.24
2023-03-07T14:07:12.296Z,49.59
2023-03-07T14:10:09.903Z,49.36
2023-03-07T14:13:05.324Z,48.67
2023-03-07T14:16:00.225Z,51.87
2023-03-07T14:18:57.898Z,52.01
2023-03-07T14:21:43.509Z,52.58
2023-03-07T14:24:31.970Z,52.15
2023-03-07T14:27:03.753Z,51.08
2023-03-07T14:29:31.348Z,51.21
2023-03-07T14:32:01.197Z,52.27
2023-03-07T14:34:36.348Z,50.97
2023-03-07T14:37:17.253Z,49.66
2023-03-07T14:39:59.763Z,49.51
2023-03-07T14:42:45.037Z,51.44
2023-03-07T14:45:28.886Z,52.62
2023-03-07T14:48:04.764Z,53.43
2023-03-07T14:50:32.928Z,54.28
2023-03-07T14:53:05.653Z,52.98
2023-03-07T14:55:39.265Z,51.79
2023-03-07T14:58:07.456Z,52.74
2023-03-07T15:00:35.897Z,52.54
2023-03-07T15:03:08.394Z,53.01
2023-03-07T15:06:00.283Z,52.51
2023-03-07T15:08:32.873Z,53.12
2023-03-07T15:11:14.741Z,52.77
2023-03-07T15:13:46.614Z,55.28
2023-03-07T15:16:19.858Z,58.99
2023-03-07T15:18:51.830Z,61.92
2023-03-07T15:21:23.423Z,63.41
2023-03-07T15:24:02.935Z,62.22
2023-03-07T15:26:31.627Z,62.07
2023-03-07T15:29:01.919Z,61.17
2023-03-07T15:31:32.039Z,61.37
2023-03-07T15:34:21.090Z,62.31
2023-03-07T15:36:47.920Z,63.70
2023-03-07T15:39:37.933Z,61.69
2023-03-07T15:42:07.591Z,61.25
2023-03-07T15:44:36.658Z,62.13
2023-03-07T15:47:18.073Z,62.42
2023-03-07T15:49:50.601Z,62.07
2023-03-07T15:52:27.989Z,61.33
2023-03-07T15:54:56.896Z,60.88
2023-03-07T15:57:31.961Z,62.68
2023-03-07T16:00:03.026Z,62.77
2023-03-07T16:02:32.846Z,63.79
2023-03-07T16:05:02.268Z,63.85
2023-03-07T16:07:29.176Z,64.63
2023-03-07T16:09:56.167Z,65.08
2023-03-07T16:12:26.931Z,65.83
2023-03-07T16:14:55.521Z,65.78
2023-03-07T16:17:35.992Z,66.38
2023-03-07T16:20:04.593Z,66.09
2023-03-07T16:22:31.659Z,65.15
2023-03-07T16:24:58.830Z,65.46
2023-03-07T16:27:25.998Z,64.61
2023-03-07T16:29:54.014Z,65.38
2023-03-07T16:32:22.791Z,65.69
2023-03-07T16:34:52.079Z,65.83
2023-03-07T16:37:20.728Z,66.21
2023-03-07T16:39:47.495Z,66.36
2023-03-07T16:42:21.576Z,65.77
2023-03-07T16:44:49.771Z,66.42
2023-03-07T16:47:18.209Z,65.84
2023-03-07T16:49:46.982Z,66.16
2023-03-07T16:52:14.762Z,69.61
2023-03-07T16:54:41.714Z,73.16
2023-03-07T16:57:17.350Z,74.19
2023-03-07T16:59:47.241Z,73.87
2023-03-07T17:02:19.537Z,74.36
2023-03-07T17:04:47.933Z,75.08
2023-03-07T17:07:19.808Z,74.75
2023-03-07T17:09:46.648Z,75.39
2023-03-07T17:12:14.347Z,75.20
2023-03-07T17:14:42.564Z,75.31
2023-03-07T17:17:18.658Z,76.62
2023-03-07T17:19:45.439Z,77.01
2023-03-07T17:22:12.310Z,76.99
2023-03-07T17:24:42.078Z,77.48
2023-03-07T17:27:09.356Z,76.91
2023-03-07T17:29:50.244Z,76.54
2023-03-07T17:32:18.333Z,76.80
2023-03-07T17:34:45.209Z,76.57
2023-03-07T17:37:12.813Z,76.46
2023-03-07T17:39:40.131Z,77.04
2023-03-07T17:42:07.502Z,77.10
2023-03-07T17:44:34.443Z,76.28
2023-03-07T17:47:01.523Z,77.43
2023-03-07T17:49:34.606Z,76.12
2023-03-07T17:52:01.466Z,76.76
2023-03-07T17:54:28.469Z,77.11
2023-03-07T17:56:59.883Z,76.00
2023-03-07T17:59:27.248Z,76.12
2023-03-07T18:01:54.256Z,75.81
2023-03-07T18:04:21.271Z,76.13
2023-03-07T18:06:48.690Z,76.56
2023-03-07T18:09:16.988Z,77.44
2023-03-07T18:11:43.947Z,77.80
2023-03-07T18:14:12.915Z,78.74
2023-03-07T18:16:39.890Z,79.64
2023-03-07T18:19:10.107Z,80.22
2023-03-07T18:21:41.566Z,80.39
2023-03-07T18:24:26.391Z,79.81
2023-03-07T18:26:57.602Z,80.03
2023-03-07T18:29:25.459Z,80.64
2023-03-07T18:31:53.201Z,81.29
2023-03-07T18:34:21.017Z,81.85
2023-03-07T18:36:51.814Z,82.01
2023-03-07T18:39:23.330Z,81.48
2023-03-07T18:41:50.401Z,81.89
2023-03-07T18:44:18.777Z,81.96
2023-03-07T18:46:46.512Z,81.87
2023-03-07T18:49:14.795Z,82.17
2023-03-07T18:51:45.878Z,82.43
2023-03-07T18:54:13.053Z,82.70
2023-03-07T18:56:40.573Z,81.81
2023-03-07T18:59:10.630Z,82.41
2023-03-07T19:01:38.090Z,82.80
2023-03-07T19:04:05.861Z,82.77
2023-03-07T19:06:36.615Z,83.05
2023-03-07T19:09:05.001Z,82.67
2023-03-07T19:11:32.202Z,82.71
2023-03-07T19:13:59.969Z,83.23
2023-03-07T19:16:28.422Z,83.47
2023-03-07T19:18:56.119Z,83.46
2023-03-07T19:21:25.195Z,83.32
2023-03-07T19:23:54.248Z,84.56
2023-03-07T19:26:24.469Z,84.61
2023-03-07T19:28:53.694Z,84.89
2023-03-07T19:31:31.474Z,84.64
2023-03-07T19:33:59.141Z,84.26
2023-03-07T19:36:32.236Z,84.65
2023-03-07T19:39:02.416Z,84.60
2023-03-07T19:41:34.106Z,84.61
2023-03-07T19:44:01.472Z,84.03
2023-03-07T19:46:29.025Z,83.93
2023-03-07T19:48:56.104Z,83.73
2023-03-07T19:51:25.760Z,83.01
2023-03-07T19:53:57.722Z,83.15
2023-03-07T19:56:29.969Z,83.23
2023-03-07T19:58:58.883Z,83.03
2023-03-07T20:01:27.413Z,82.28
2023-03-07T20:03:54.728Z,82.35
2023-03-07T20:06:26.709Z,82.74
2023-03-07T20:08:55.207Z,82.72
2023-03-07T20:11:28.506Z,82.42
2023-03-07T20:13:59.984Z,83.34
2023-03-07T20:16:29.789Z,82.31
2023-03-07T20:18:59.722Z,82.49
2023-03-07T20:21:28.774Z,82.63
2023-03-07T20:23:59.750Z,82.88
2023-03-07T20:26:35.316Z,82.82
2023-03-07T20:29:08.095Z,82.93
2023-03-07T20:31:36.544Z,82.91
2023-03-07T20:34:04.058Z,82.91
2023-03-07T20:36:33.522Z,83.09
2023-03-07T20:39:02.775Z,83.10
2023-03-07T20:41:34.711Z,82.75
2023-03-07T20:44:04.324Z,82.73
2023-03-07T20:46:31.956Z,83.13
2023-03-07T20:49:00.435Z,82.79
2023-03-07T20:51:29.913Z,82.53
2023-03-07T20:53:59.362Z,82.32
2023-03-07T20:56:28.723Z,82.53
2023-03-07T20:59:00.236Z,83.34
2023-03-07T21:01:29.528Z,83.01
2023-03-07T21:03:56.849Z,83.17
2023-03-07T21:06:24.052Z,83.42
2023-03-07T21:08:51.026Z,83.62
2023-03-07T21:11:19.899Z,83.25
2023-03-07T21:13:48.826Z,83.34
2023-03-07T21:16:18.806Z,83.21
2023-03-07T21:18:46.258Z,83.14
2023-03-07T21:21:15.476Z,83.20
2023-03-07T21:23:42.683Z,82.82
2023-03-07T21:26:19.980Z,83.10
2023-03-07T21:28:48.430Z,82.74
2023-03-07T21:31:25.309Z,82.47
2023-03-07T21:33:59.578Z,83.16
2023-03-07T21:36:28.039Z,83.05
2023-03-07T21:38:56.218Z,83.23
2023-03-07T21:41:25.292Z,83.33
2023-03-07T21:43:55.812Z,83.51
2023-03-07T21:46:23.567Z,83.51
2023-03-07T21:48:50.956Z,83.81
2023-03-07T21:51:18.662Z,83.83
2023-03-07T21:53:46.855Z,83.77
2023-03-07T21:56:19.270Z,84.36
2023-03-07T21:58:51.009Z,84.18
2023-03-07T22:01:27.058Z,85.05
2023-03-07T22:03:55.558Z,85.37
2023-03-07T22:06:23.716Z,85.60
2023-03-07T22:08:51.171Z,85.51
2023-03-07T22:11:18.032Z,85.59
2023-03-07T22:13:44.958Z,85.48
2023-03-07T22:16:14.561Z,85.79
2023-03-07T22:18:41.575Z,85.82
2023-03-07T22:21:14.478Z,85.50
2023-03-07T22:23:46.055Z,85.64
2023-03-07T22:26:13.117Z,86.15
2023-03-07T22:28:43.630Z,85.18
2023-03-07T22:31:13.699Z,85.44
2023-03-07T22:33:41.635Z,85.13
2023-03-07T22:36:12.678Z,85.78
2023-03-07T22:38:41.908Z,85.13
2023-03-07T22:41:13.292Z,85.39
2023-03-07T22:43:40.461Z,85.70
2023-03-07T22:46:08.011Z,84.79
2023-03-07T22:48:35.680Z,85.92
2023-03-07T22:51:02.868Z,85.51
2023-03-07T22:53:31.356Z,86.27
2023-03-07T22:56:02.195Z,86.07
2023-03-07T22:58:32.463Z,85.86
2023-03-07T23:00:59.596Z,85.80
2023-03-07T23:03:26.966Z,85.84
2023-03-07T23:06:00.124Z,86.18
2023-03-07T23:08:27.285Z,85.89
2023-03-07T23:11:10.016Z,85.88
2023-03-07T23:13:36.963Z,86.20
2023-03-07T23:16:10.685Z,86.22
2023-03-07T23:18:40.765Z,86.04
2023-03-07T23:21:10.106Z,86.25
2023-03-07T23:23:37.678Z,85.75
2023-03-07T23:26:05.755Z,86.32
2023-03-07T23:28:33.265Z,86.29
2023-03-07T23:31:00.250Z,85.83
2023-03-07T23:33:28.100Z,86.05
2023-03-07T23:36:00.051Z,86.23
2023-03-07T23:38:29.955Z,86.35
2023-03-07T23:40:58.550Z,84.79
2023-03-07T23:43:25.477Z,84.77
2023-03-07T23:45:52.393Z,84.75
2023-03-07T23:48:19.313Z,85.25
2023-03-07T23:50:48.662Z,84.52
2023-03-07T23:53:15.560Z,85.15
2023-03-07T23:55:42.797Z,84.47
2023-03-07T23:58:09.865Z,85.60
